createdAt,value
2023-02-03T00:00:43.458Z,2.58
2023-02-03T00:01:46.942Z,2.80
2023-02-03T00:02:50.826Z,2.67
2023-02-03T00:03:53.911Z,2.97
2023-02-03T00:04:57.073Z,2.78
2023-02-03T00:06:02.773Z,2.60
2023-02-03T00:07:06.297Z,2.45
2023-02-03T00:08:10.393Z,2.88
2023-02-03T00:09:14.805Z,2.35
2023-02-03T00:10:21.725Z,2.67
2023-02-03T00:11:25.647Z,2.92
2023-02-03T00:12:29.314Z,3.75
2023-02-03T00:13:32.622Z,2.78
2023-02-03T00:14:37.887Z,3.20
2023-02-03T00:15:41.402Z,2.95
2023-02-03T00:16:44.531Z,3.45
2023-02-03T00:17:47.586Z,2.70
2023-02-03T00:18:50.794Z,3.78
2023-02-03T00:19:54.074Z,2.58
2023-02-03T00:20:57.329Z,2.42
2023-02-03T00:22:00.576Z,3.00
2023-02-03T00:23:08.320Z,3.33
2023-02-03T00:24:11.728Z,3.03
2023-02-03T00:25:15.162Z,2.72
2023-02-03T00:26:18.806Z,3.28
2023-02-03T00:27:23.942Z,2.60
2023-02-03T00:28:31.894Z,3.13
2023-02-03T00:29:35.065Z,2.95
2023-02-03T00:30:38.476Z,2.58
2023-02-03T00:31:41.969Z,2.47
2023-02-03T00:32:45.291Z,2.80
2023-02-03T00:33:53.492Z,2.63
2023-02-03T00:34:56.656Z,2.83
2023-02-03T00:36:05.705Z,2.75
2023-02-03T00:37:09.227Z,2.28
2023-02-03T00:38:13.458Z,2.47
2023-02-03T00:39:18.288Z,3.00
2023-02-03T00:40:27.010Z,2.58
2023-02-03T00:41:31.792Z,2.80
2023-02-03T00:42:35.996Z,3.25
2023-02-03T00:43:39.176Z,2.88
2023-02-03T00:44:42.304Z,3.25
2023-02-03T00:45:45.848Z,4.00
2023-02-03T00:46:48.934Z,3.50
2023-02-03T00:47:52.095Z,3.95
2023-02-03T00:48:55.136Z,4.22
2023-02-03T00:49:58.301Z,3.80
2023-02-03T00:51:01.578Z,4.40
2023-02-03T00:52:05.089Z,3.35
2023-02-03T00:53:08.253Z,4.10
2023-02-03T00:54:11.484Z,3.88
2023-02-03T00:55:14.629Z,4.10
2023-02-03T00:56:17.688Z,4.50
2023-02-03T00:57:20.809Z,3.90
2023-02-03T00:58:24.005Z,4.10
2023-02-03T00:59:27.121Z,3.75
2023-02-03T01:00:30.295Z,3.20
2023-02-03T01:01:35.177Z,3.60
2023-02-03T01:02:38.415Z,3.35
2023-02-03T01:03:41.642Z,3.30
2023-02-03T01:04:45.839Z,3.40
2023-02-03T01:05:49.160Z,3.15
2023-02-03T01:06:56.312Z,2.88
2023-02-03T01:08:00.866Z,2.97
2023-02-03T01:09:04.530Z,2.88
2023-02-03T01:10:09.223Z,2.92
2023-02-03T01:11:17.357Z,3.22
2023-02-03T01:12:20.625Z,3.55
2023-02-03T01:13:23.680Z,3.22
2023-02-03T01:14:26.928Z,3.17
2023-02-03T01:15:30.097Z,3.13
2023-02-03T01:16:36.521Z,2.97
2023-02-03T01:17:39.772Z,2.85
2023-02-03T01:18:43.679Z,2.92
2023-02-03T01:19:46.773Z,3.35
2023-02-03T01:20:49.965Z,2.85
2023-02-03T01:21:53.266Z,3.40
2023-02-03T01:22:56.453Z,2.63
2023-02-03T01:24:00.932Z,2.55
2023-02-03T01:25:04.399Z,2.67
2023-02-03T01:26:13.050Z,2.10
2023-02-03T01:27:16.203Z,2.60
2023-02-03T01:28:19.374Z,2.72
2023-02-03T01:29:22.659Z,2.20
2023-02-03T01:30:26.354Z,1.92
2023-02-03T01:31:37.194Z,2.45
2023-02-03T01:32:43.408Z,2.53
2023-02-03T01:33:48.587Z,2.10
2023-02-03T01:34:51.679Z,2.47
2023-02-03T01:35:54.851Z,2.22
2023-02-03T01:36:58.075Z,2.22
2023-02-03T01:38:01.194Z,2.33
2023-02-03T01:39:05.727Z,2.42
2023-02-03T01:40:09.834Z,2.90
2023-02-03T01:41:21.629Z,2.85
2023-02-03T01:42:24.817Z,2.28
2023-02-03T01:43:41.709Z,2.30
2023-02-03T01:44:52.380Z,2.80
2023-02-03T01:45:55.735Z,2.33
2023-02-03T01:46:59.499Z,2.35
2023-02-03T01:48:04.472Z,2.28
2023-02-03T01:49:32.818Z,2.83
2023-02-03T01:50:38.058Z,2.28
2023-02-03T01:51:44.079Z,2.00
2023-02-03T01:52:58.545Z,2.85
2023-02-03T01:54:02.928Z,2.72
2023-02-03T01:55:12.583Z,2.55
2023-02-03T01:56:16.968Z,3.35
2023-02-03T01:57:27.410Z,3.28
2023-02-03T01:58:36.024Z,3.17
2023-02-03T01:59:39.761Z,2.70
2023-02-03T02:00:44.173Z,3.10
2023-02-03T02:01:47.730Z,3.20
2023-02-03T02:02:52.144Z,2.67
2023-02-03T02:03:58.955Z,3.08
2023-02-03T02:05:20.439Z,3.00
2023-02-03T02:06:23.770Z,3.90
2023-02-03T02:07:27.880Z,2.83
2023-02-03T02:08:31.831Z,3.47
2023-02-03T02:09:35.366Z,2.95
2023-02-03T02:10:38.735Z,2.83
2023-02-03T02:11:41.938Z,3.15
2023-02-03T02:12:45.424Z,3.22
2023-02-03T02:13:52.480Z,3.15
2023-02-03T02:14:58.020Z,2.85
2023-02-03T02:16:42.454Z,2.65
2023-02-03T02:18:08.039Z,2.33
2023-02-03T02:19:45.259Z,2.58
2023-02-03T02:21:24.549Z,2.90
2023-02-03T02:23:11.436Z,2.03
2023-02-03T02:24:56.112Z,2.08
2023-02-03T02:26:40.761Z,2.20
2023-02-03T02:28:02.728Z,2.47
2023-02-03T02:29:45.390Z,2.00
2023-02-03T02:31:46.990Z,1.98
2023-02-03T02:33:10.716Z,2.60
2023-02-03T02:34:45.240Z,2.65
2023-02-03T02:36:13.904Z,2.13
2023-02-03T02:37:48.124Z,2.47
2023-02-03T02:39:03.159Z,2.75
2023-02-03T02:40:26.941Z,3.00
2023-02-03T02:41:43.879Z,2.80
2023-02-03T02:43:21.899Z,2.38
2023-02-03T02:44:46.024Z,2.22
2023-02-03T02:45:51.232Z,2.17
2023-02-03T02:47:02.954Z,2.42
2023-02-03T02:48:15.562Z,2.47
2023-02-03T02:49:31.081Z,2.13
2023-02-03T02:50:41.520Z,2.40
2023-02-03T02:51:48.665Z,2.38
2023-02-03T02:52:54.424Z,2.85
2023-02-03T02:54:03.775Z,2.58
2023-02-03T02:55:17.081Z,3.10
2023-02-03T02:56:21.226Z,2.60
2023-02-03T02:57:27.577Z,2.33
2023-02-03T02:58:34.059Z,2.45
2023-02-03T02:59:37.457Z,2.38
2023-02-03T03:00:41.626Z,2.63
2023-02-03T03:01:45.092Z,2.75
2023-02-03T03:02:48.275Z,2.53
2023-02-03T03:03:52.198Z,2.45
2023-02-03T03:04:55.468Z,2.55
2023-02-03T03:06:08.856Z,3.00
2023-02-03T03:07:22.254Z,2.92
2023-02-03T03:08:55.640Z,2.42
2023-02-03T03:10:05.226Z,2.85
2023-02-03T03:11:08.717Z,2.72
2023-02-03T03:12:22.753Z,2.85
2023-02-03T03:13:33.410Z,2.92
2023-02-03T03:14:40.254Z,2.00
2023-02-03T03:15:45.691Z,2.30
2023-02-03T03:16:59.649Z,2.95
2023-02-03T03:18:15.989Z,2.70
2023-02-03T03:19:24.823Z,2.78
2023-02-03T03:20:30.344Z,3.07
2023-02-03T03:21:44.148Z,2.60
2023-02-03T03:22:57.576Z,3.65
2023-02-03T03:24:05.842Z,2.67
2023-02-03T03:25:21.273Z,2.58
2023-02-03T03:26:58.775Z,2.70
2023-02-03T03:28:08.545Z,2.33
2023-02-03T03:29:56.752Z,2.40
2023-02-03T03:30:59.927Z,2.28
2023-02-03T03:32:03.915Z,2.53
2023-02-03T03:33:09.121Z,2.53
2023-02-03T03:34:13.701Z,3.58
2023-02-03T03:35:17.704Z,2.67
2023-02-03T03:36:40.665Z,2.55
2023-02-03T03:38:14.418Z,3.28
2023-02-03T03:39:23.002Z,2.83
2023-02-03T03:41:04.024Z,2.80
2023-02-03T03:42:47.201Z,2.58
2023-02-03T03:43:54.306Z,2.60
2023-02-03T03:45:22.710Z,2.67
2023-02-03T03:46:34.812Z,2.40
2023-02-03T03:48:11.574Z,2.70
2023-02-03T03:49:15.992Z,2.45
2023-02-03T03:50:27.658Z,3.08
2023-02-03T03:51:52.065Z,2.88
2023-02-03T03:52:58.268Z,2.53
2023-02-03T03:54:07.975Z,2.42
2023-02-03T03:55:14.795Z,2.35
2023-02-03T03:56:36.803Z,2.25
2023-02-03T03:57:56.722Z,2.25
2023-02-03T03:59:02.731Z,2.17
2023-02-03T04:00:10.170Z,2.70
2023-02-03T04:01:18.245Z,3.15
2023-02-03T04:02:22.853Z,2.63
2023-02-03T04:03:38.782Z,2.67
2023-02-03T04:04:45.004Z,2.65
2023-02-03T04:05:48.178Z,1.73
2023-02-03T04:06:54.947Z,2.00
2023-02-03T04:07:59.156Z,2.50
2023-02-03T04:09:03.052Z,3.33
2023-02-03T04:10:22.055Z,3.20
2023-02-03T04:11:43.828Z,3.35
2023-02-03T04:12:46.997Z,2.65
2023-02-03T04:13:50.096Z,3.08
2023-02-03T04:14:53.267Z,2.35
2023-02-03T04:15:56.399Z,2.90
2023-02-03T04:16:59.955Z,3.67
2023-02-03T04:18:04.123Z,2.92
2023-02-03T04:19:08.636Z,2.10
2023-02-03T04:20:12.708Z,2.88
2023-02-03T04:21:16.014Z,2.60
2023-02-03T04:22:19.129Z,2.67
2023-02-03T04:23:22.340Z,2.97
2023-02-03T04:24:25.474Z,2.75
2023-02-03T04:25:28.651Z,2.83
2023-02-03T04:26:31.867Z,2.50
2023-02-03T04:27:35.702Z,2.60
2023-02-03T04:28:38.887Z,2.70
2023-02-03T04:29:42.178Z,2.08
2023-02-03T04:30:45.625Z,2.40
2023-02-03T04:31:49.181Z,2.28
2023-02-03T04:32:52.760Z,2.20
2023-02-03T04:33:55.853Z,2.80
2023-02-03T04:34:59.725Z,2.67
2023-02-03T04:36:02.955Z,2.97
2023-02-03T04:37:06.076Z,3.92
2023-02-03T04:38:09.177Z,3.95
2023-02-03T04:39:12.286Z,3.75
2023-02-03T04:40:15.509Z,3.15
2023-02-03T04:41:18.916Z,3.33
2023-02-03T04:42:23.690Z,2.63
2023-02-03T04:43:26.820Z,2.55
2023-02-03T04:44:29.962Z,3.00
2023-02-03T04:45:33.272Z,3.83
2023-02-03T04:46:36.414Z,2.10
2023-02-03T04:47:39.868Z,2.88
2023-02-03T04:48:43.014Z,3.15
2023-02-03T04:49:46.465Z,2.95
2023-02-03T04:50:49.503Z,3.58
2023-02-03T04:51:52.971Z,3.50
2023-02-03T04:52:56.258Z,2.85
2023-02-03T04:53:59.372Z,2.83
2023-02-03T04:55:04.083Z,3.45
2023-02-03T04:56:07.767Z,3.20
2023-02-03T04:57:10.874Z,3.80
2023-02-03T04:58:14.277Z,4.00
2023-02-03T04:59:17.409Z,3.72
2023-02-03T05:00:21.182Z,4.07
2023-02-03T05:01:26.945Z,3.70
2023-02-03T05:02:30.268Z,3.47
2023-02-03T05:03:33.578Z,3.33
2023-02-03T05:04:36.669Z,2.75
2023-02-03T05:05:39.838Z,3.50
2023-02-03T05:06:42.979Z,3.05
2023-02-03T05:07:46.059Z,3.28
2023-02-03T05:08:49.112Z,3.35
2023-02-03T05:09:52.644Z,3.55
2023-02-03T05:10:56.094Z,3.45
2023-02-03T05:11:59.316Z,3.42
2023-02-03T05:13:02.470Z,2.92
2023-02-03T05:14:05.708Z,3.85
2023-02-03T05:15:09.536Z,3.65
2023-02-03T05:16:12.681Z,3.70
2023-02-03T05:17:15.786Z,3.70
2023-02-03T05:18:19.041Z,3.42
2023-02-03T05:19:24.512Z,4.18
2023-02-03T05:20:28.610Z,3.35
2023-02-03T05:21:32.121Z,3.75
2023-02-03T05:22:35.711Z,4.05
2023-02-03T05:23:38.772Z,4.03
2023-02-03T05:24:41.921Z,3.70
2023-02-03T05:25:46.060Z,3.50
2023-02-03T05:26:49.250Z,3.47
2023-02-03T05:27:52.481Z,3.92
2023-02-03T05:28:57.671Z,3.78
2023-02-03T05:30:00.919Z,3.88
2023-02-03T05:31:04.234Z,3.60
2023-02-03T05:32:07.484Z,4.18
2023-02-03T05:33:10.714Z,4.43
2023-02-03T05:34:13.975Z,3.72
2023-02-03T05:35:17.409Z,4.07
2023-02-03T05:36:20.786Z,3.88
2023-02-03T05:37:24.132Z,3.88
2023-02-03T05:38:27.269Z,4.18
2023-02-03T05:39:30.371Z,4.55
2023-02-03T05:40:52.081Z,4.72
2023-02-03T05:41:57.341Z,4.95
2023-02-03T05:43:01.486Z,3.97
2023-02-03T05:44:04.971Z,3.70
2023-02-03T05:45:08.422Z,3.95
2023-02-03T05:46:11.758Z,4.15
2023-02-03T05:47:15.433Z,5.00
2023-02-03T05:48:18.524Z,5.18
2023-02-03T05:49:23.336Z,4.95
2023-02-03T05:50:27.927Z,5.00
2023-02-03T05:51:43.420Z,4.07
2023-02-03T05:52:46.516Z,4.38
2023-02-03T05:53:49.602Z,4.53
2023-02-03T05:54:52.686Z,4.28
2023-02-03T05:55:55.933Z,4.63
2023-02-03T05:56:59.024Z,4.65
2023-02-03T05:58:02.120Z,5.10
2023-02-03T05:59:06.529Z,4.68
2023-02-03T06:00:14.890Z,4.72
2023-02-03T06:01:19.433Z,3.30
2023-02-03T06:02:22.509Z,4.25
2023-02-03T06:03:25.739Z,4.55
2023-02-03T06:04:28.926Z,4.07
2023-02-03T06:05:34.594Z,4.82
2023-02-03T06:06:37.873Z,3.75
2023-02-03T06:07:41.020Z,4.18
2023-02-03T06:08:44.710Z,4.15
2023-02-03T06:09:47.830Z,3.75
2023-02-03T06:10:50.943Z,4.82
2023-02-03T06:11:54.011Z,4.47
2023-02-03T06:12:57.308Z,4.30
2023-02-03T06:14:00.838Z,4.65
2023-02-03T06:15:04.690Z,4.55
2023-02-03T06:16:08.039Z,6.05
2023-02-03T06:17:11.432Z,5.93
2023-02-03T06:18:14.592Z,5.78
2023-02-03T06:19:17.746Z,5.18
2023-02-03T06:20:21.238Z,6.32
2023-02-03T06:21:24.394Z,7.22
2023-02-03T06:22:27.542Z,8.00
2023-02-03T06:23:31.145Z,6.70
2023-02-03T06:24:34.270Z,5.57
2023-02-03T06:25:37.381Z,6.70
2023-02-03T06:26:40.526Z,7.13
2023-02-03T06:27:43.701Z,6.35
2023-02-03T06:28:46.865Z,7.03
2023-02-03T06:29:50.502Z,7.10
2023-02-03T06:30:54.119Z,6.95
2023-02-03T06:31:58.309Z,6.70
2023-02-03T06:33:01.445Z,7.15
2023-02-03T06:34:04.824Z,7.07
2023-02-03T06:35:08.778Z,6.65
2023-02-03T06:36:11.998Z,7.55
2023-02-03T06:37:15.960Z,4.80
2023-02-03T06:38:19.039Z,6.05
2023-02-03T06:39:22.227Z,6.00
2023-02-03T06:40:25.485Z,4.95
2023-02-03T06:41:30.737Z,5.38
2023-02-03T06:42:34.603Z,5.57
2023-02-03T06:43:37.836Z,6.60
2023-02-03T06:44:41.968Z,6.38
2023-02-03T06:45:48.267Z,6.45
2023-02-03T06:46:51.605Z,7.53
2023-02-03T06:47:54.698Z,7.68
2023-02-03T06:48:57.791Z,7.75
2023-02-03T06:50:00.849Z,8.02
2023-02-03T06:51:05.685Z,6.18
2023-02-03T06:52:08.910Z,7.45
2023-02-03T06:53:12.002Z,6.18
2023-02-03T06:54:15.541Z,7.22
2023-02-03T06:55:18.799Z,5.85
2023-02-03T06:56:21.852Z,7.00
2023-02-03T06:57:25.024Z,6.38
2023-02-03T06:58:28.362Z,6.82
2023-02-03T06:59:32.004Z,6.40
2023-02-03T07:00:35.242Z,6.38
2023-02-03T07:01:38.672Z,6.20
2023-02-03T07:02:41.984Z,6.35
2023-02-03T07:03:45.300Z,6.70
2023-02-03T07:04:48.377Z,6.40
2023-02-03T07:05:51.636Z,6.90
2023-02-03T07:06:54.796Z,7.20
2023-02-03T07:07:59.117Z,7.25
2023-02-03T07:09:05.710Z,8.20
2023-02-03T07:10:09.352Z,7.70
2023-02-03T07:11:12.716Z,6.70
2023-02-03T07:12:15.871Z,7.47
2023-02-03T07:13:18.992Z,6.13
2023-02-03T07:14:22.152Z,7.25
2023-02-03T07:15:25.270Z,7.85
2023-02-03T07:16:28.962Z,6.78
2023-02-03T07:17:32.204Z,6.75
2023-02-03T07:18:47.025Z,6.20
2023-02-03T07:19:51.075Z,7.60
2023-02-03T07:20:54.169Z,7.93
2023-02-03T07:21:57.346Z,8.27
2023-02-03T07:23:00.717Z,7.80
2023-02-03T07:24:04.545Z,7.00
2023-02-03T07:25:07.919Z,5.50
2023-02-03T07:26:11.854Z,5.47
2023-02-03T07:27:15.321Z,5.57
2023-02-03T07:28:19.163Z,6.55
2023-02-03T07:29:22.266Z,6.40
2023-02-03T07:30:25.503Z,6.07
2023-02-03T07:31:29.085Z,6.15
2023-02-03T07:32:32.951Z,5.82
2023-02-03T07:33:38.627Z,6.13
2023-02-03T07:34:41.687Z,6.57
2023-02-03T07:35:44.810Z,6.45
2023-02-03T07:36:48.142Z,7.35
2023-02-03T07:37:51.282Z,7.15
2023-02-03T07:38:54.890Z,6.10
2023-02-03T07:39:58.159Z,6.70
2023-02-03T07:41:01.414Z,6.18
2023-02-03T07:42:04.762Z,6.90
2023-02-03T07:43:12.655Z,6.03
2023-02-03T07:44:16.010Z,5.32
2023-02-03T07:45:19.714Z,5.43
2023-02-03T07:46:23.154Z,5.45
2023-02-03T07:47:26.351Z,6.03
2023-02-03T07:48:29.549Z,5.78
2023-02-03T07:49:32.783Z,5.70
2023-02-03T07:50:36.483Z,5.95
2023-02-03T07:51:39.731Z,5.97
2023-02-03T07:52:42.964Z,5.63
2023-02-03T07:53:46.644Z,4.45
2023-02-03T07:54:49.955Z,5.97
2023-02-03T07:55:53.063Z,5.07
2023-02-03T07:56:56.228Z,5.45
2023-02-03T07:58:02.890Z,4.97
2023-02-03T07:59:06.348Z,4.78
2023-02-03T08:00:14.602Z,6.07
2023-02-03T08:01:17.781Z,5.28
2023-02-03T08:02:20.993Z,5.25
2023-02-03T08:03:24.499Z,5.65
2023-02-03T08:04:27.704Z,4.95
2023-02-03T08:05:31.025Z,4.70
2023-02-03T08:06:34.343Z,5.00
2023-02-03T08:07:37.921Z,4.05
2023-02-03T08:08:42.233Z,3.85
2023-02-03T08:09:45.323Z,4.13
2023-02-03T08:10:48.587Z,4.93
2023-02-03T08:11:51.826Z,4.03
2023-02-03T08:12:56.437Z,4.88
2023-02-03T08:13:59.629Z,4.63
2023-02-03T08:15:03.459Z,4.65
2023-02-03T08:16:07.294Z,5.15
2023-02-03T08:17:10.398Z,4.93
2023-02-03T08:18:14.230Z,4.40
2023-02-03T08:19:17.270Z,4.55
2023-02-03T08:20:20.922Z,4.53
2023-02-03T08:21:24.252Z,3.85
2023-02-03T08:22:27.845Z,4.95
2023-02-03T08:23:32.107Z,3.85
2023-02-03T08:24:35.409Z,5.25
2023-02-03T08:25:38.659Z,5.57
2023-02-03T08:26:41.891Z,5.05
2023-02-03T08:27:45.129Z,5.00
2023-02-03T08:28:51.248Z,4.72
2023-02-03T08:29:54.477Z,4.60
2023-02-03T08:30:58.054Z,3.83
2023-02-03T08:32:01.217Z,4.53
2023-02-03T08:33:04.382Z,4.72
2023-02-03T08:34:07.560Z,4.22
2023-02-03T08:35:10.774Z,4.47
2023-02-03T08:36:14.140Z,4.32
2023-02-03T08:37:22.783Z,4.00
2023-02-03T08:38:25.950Z,4.50
2023-02-03T08:39:29.291Z,4.50
2023-02-03T08:40:32.938Z,4.65
2023-02-03T08:41:36.113Z,4.55
2023-02-03T08:42:39.263Z,4.00
2023-02-03T08:43:42.517Z,4.60
2023-02-03T08:44:45.769Z,5.13
2023-02-03T08:45:49.287Z,4.65
2023-02-03T08:46:54.308Z,4.70
2023-02-03T08:47:57.819Z,4.82
2023-02-03T08:49:02.848Z,4.72
2023-02-03T08:50:09.108Z,4.60
2023-02-03T08:51:15.727Z,4.88
2023-02-03T08:52:19.270Z,4.93
2023-02-03T08:53:22.421Z,4.45
2023-02-03T08:54:26.342Z,4.82
2023-02-03T08:55:29.506Z,4.60
2023-02-03T08:56:34.197Z,4.68
2023-02-03T08:57:37.828Z,5.00
2023-02-03T08:58:41.431Z,5.20
2023-02-03T08:59:45.424Z,4.80
2023-02-03T09:00:50.053Z,5.57
2023-02-03T09:01:53.495Z,4.55
2023-02-03T09:02:56.704Z,5.25
2023-02-03T09:04:02.029Z,4.80
2023-02-03T09:05:05.603Z,4.70
2023-02-03T09:06:11.873Z,5.10
2023-02-03T09:07:16.820Z,4.13
2023-02-03T09:08:20.648Z,5.30
2023-02-03T09:09:26.497Z,5.05
2023-02-03T09:10:30.081Z,4.38
2023-02-03T09:11:33.448Z,5.25
2023-02-03T09:12:36.702Z,5.05
2023-02-03T09:13:41.069Z,4.38
2023-02-03T09:14:44.539Z,4.32
2023-02-03T09:15:47.657Z,4.43
2023-02-03T09:16:50.979Z,4.38
2023-02-03T09:17:55.522Z,5.05
2023-02-03T09:18:58.602Z,4.95
2023-02-03T09:20:01.720Z,4.50
2023-02-03T09:21:08.396Z,5.65
2023-02-03T09:22:11.817Z,4.68
2023-02-03T09:23:15.305Z,4.60
2023-02-03T09:24:19.126Z,4.97
2023-02-03T09:25:22.192Z,4.72
2023-02-03T09:26:25.297Z,4.18
2023-02-03T09:27:28.375Z,4.05
2023-02-03T09:28:32.363Z,3.88
2023-02-03T09:29:35.552Z,4.40
2023-02-03T09:30:38.862Z,3.88
2023-02-03T09:31:42.185Z,4.82
2023-02-03T09:32:49.011Z,4.20
2023-02-03T09:33:52.269Z,4.03
2023-02-03T09:34:55.413Z,4.55
2023-02-03T09:35:59.346Z,3.65
2023-02-03T09:37:04.407Z,3.80
2023-02-03T09:38:07.813Z,3.70
2023-02-03T09:39:10.982Z,3.92
2023-02-03T09:40:30.901Z,3.25
2023-02-03T09:42:17.732Z,3.00
2023-02-03T09:43:39.574Z,4.40
2023-02-03T09:45:09.029Z,3.10
2023-02-03T09:46:34.965Z,3.05
2023-02-03T09:47:42.843Z,2.92
2023-02-03T09:48:54.913Z,2.97
2023-02-03T09:50:02.718Z,3.05
2023-02-03T09:51:21.427Z,2.75
2023-02-03T09:52:36.041Z,2.08
2023-02-03T09:53:48.586Z,3.10
2023-02-03T09:55:35.354Z,2.85
2023-02-03T09:56:40.826Z,2.45
2023-02-03T09:57:57.045Z,2.08
2023-02-03T09:59:01.382Z,3.13
2023-02-03T10:00:23.132Z,2.35
2023-02-03T10:01:44.542Z,2.92
2023-02-03T10:02:53.399Z,2.33
2023-02-03T10:04:09.594Z,3.30
2023-02-03T10:05:47.492Z,2.47
2023-02-03T10:07:02.846Z,2.67
2023-02-03T10:08:30.132Z,2.40
2023-02-03T10:09:41.570Z,2.35
2023-02-03T10:10:48.101Z,2.65
2023-02-03T10:12:22.445Z,2.33
2023-02-03T10:14:03.897Z,2.92
2023-02-03T10:15:44.085Z,2.28
2023-02-03T10:17:31.188Z,2.33
2023-02-03T10:18:45.993Z,2.05
2023-02-03T10:20:09.917Z,2.67
2023-02-03T10:21:41.664Z,2.42
2023-02-03T10:22:58.599Z,2.08
2023-02-03T10:24:06.195Z,2.03
2023-02-03T10:25:14.780Z,2.88
2023-02-03T10:26:24.715Z,2.60
2023-02-03T10:27:28.996Z,2.22
2023-02-03T10:28:39.492Z,2.42
2023-02-03T10:29:43.333Z,2.22
2023-02-03T10:31:01.085Z,2.38
2023-02-03T10:32:14.684Z,2.40
2023-02-03T10:33:20.042Z,2.50
2023-02-03T10:34:25.437Z,2.47
2023-02-03T10:36:19.943Z,2.25
2023-02-03T10:37:37.148Z,2.10
2023-02-03T10:38:48.734Z,2.13
2023-02-03T10:39:56.942Z,2.22
2023-02-03T10:41:00.382Z,2.80
2023-02-03T10:42:06.421Z,2.25
2023-02-03T10:43:29.489Z,2.63
2023-02-03T10:44:54.720Z,2.40
2023-02-03T10:45:59.284Z,2.10
2023-02-03T10:47:02.540Z,2.20
2023-02-03T10:48:12.340Z,2.58
2023-02-03T10:49:16.622Z,2.97
2023-02-03T10:50:31.840Z,2.08
2023-02-03T10:51:50.718Z,2.10
2023-02-03T10:53:22.636Z,1.92
2023-02-03T10:54:34.436Z,2.35
2023-02-03T10:55:37.728Z,2.38
2023-02-03T10:56:41.223Z,2.08
2023-02-03T10:57:44.396Z,2.47
2023-02-03T10:58:53.368Z,2.42
2023-02-03T11:00:31.314Z,2.67
2023-02-03T11:01:44.873Z,2.55
2023-02-03T11:03:08.803Z,2.42
2023-02-03T11:04:30.987Z,2.17
2023-02-03T11:05:35.173Z,1.80
2023-02-03T11:07:08.396Z,3.40
2023-02-03T11:08:17.648Z,2.00
2023-02-03T11:09:38.833Z,1.95
2023-02-03T11:10:43.336Z,2.30
2023-02-03T11:11:46.469Z,2.42
2023-02-03T11:12:49.631Z,2.13
2023-02-03T11:14:02.741Z,2.65
2023-02-03T11:15:06.757Z,2.75
2023-02-03T11:16:24.857Z,2.90
2023-02-03T11:17:31.176Z,1.80
2023-02-03T11:18:58.477Z,2.38
2023-02-03T11:20:17.232Z,2.53
2023-02-03T11:21:38.525Z,1.90
2023-02-03T11:22:44.304Z,2.25
2023-02-03T11:24:10.912Z,2.30
2023-02-03T11:25:32.623Z,1.95
2023-02-03T11:26:55.345Z,2.65
2023-02-03T11:28:07.065Z,2.00
2023-02-03T11:29:32.312Z,2.20
2023-02-03T11:30:35.530Z,1.83
2023-02-03T11:31:38.815Z,2.50
2023-02-03T11:32:44.814Z,1.95
2023-02-03T11:34:02.312Z,2.53
2023-02-03T11:35:24.529Z,1.67
2023-02-03T11:36:31.116Z,2.42
2023-02-03T11:37:39.876Z,2.03
2023-02-03T11:38:44.908Z,2.20
2023-02-03T11:39:48.191Z,2.10
2023-02-03T11:41:01.348Z,1.85
2023-02-03T11:42:24.276Z,1.73
2023-02-03T11:43:29.589Z,2.08
2023-02-03T11:44:33.699Z,2.03
2023-02-03T11:45:43.483Z,1.50
2023-02-03T11:46:53.787Z,1.90
2023-02-03T11:48:35.596Z,2.10
2023-02-03T11:50:32.135Z,2.22
2023-02-03T11:52:30.323Z,2.17
2023-02-03T11:54:02.757Z,1.80
2023-02-03T11:55:42.984Z,1.98
2023-02-03T11:56:57.940Z,2.22
2023-02-03T11:58:29.852Z,1.83
2023-02-03T12:00:29.262Z,1.85
2023-02-03T12:02:09.618Z,2.42
2023-02-03T12:03:30.861Z,2.15
2023-02-03T12:05:00.846Z,2.63
2023-02-03T12:06:17.727Z,2.08
2023-02-03T12:07:38.575Z,2.35
2023-02-03T12:09:56.606Z,2.53
2023-02-03T12:11:23.867Z,2.15
2023-02-03T12:12:59.695Z,2.17
2023-02-03T12:14:59.248Z,8.52
2023-02-03T12:16:38.942Z,3.65
2023-02-03T12:17:56.977Z,1.80
2023-02-03T12:19:38.836Z,2.95
2023-02-03T12:21:13.584Z,2.55
2023-02-03T12:22:45.125Z,2.35
2023-02-03T12:23:59.360Z,2.60
2023-02-03T12:25:37.266Z,2.53
2023-02-03T12:27:23.694Z,2.15
2023-02-03T12:29:03.460Z,2.60
2023-02-03T12:30:30.993Z,3.22
2023-02-03T12:31:44.328Z,2.75
2023-02-03T12:33:06.942Z,2.28
2023-02-03T12:34:32.631Z,2.78
2023-02-03T12:35:45.928Z,2.80
2023-02-03T12:37:13.995Z,2.45
2023-02-03T12:38:35.824Z,3.45
2023-02-03T12:40:09.595Z,2.47
2023-02-03T12:41:36.257Z,2.40
2023-02-03T12:42:55.823Z,2.25
2023-02-03T12:44:07.541Z,2.33
2023-02-03T12:45:20.285Z,3.05
2023-02-03T12:46:42.664Z,2.53
2023-02-03T12:48:05.010Z,3.05
2023-02-03T12:49:28.769Z,3.13
2023-02-03T12:50:54.161Z,2.50
2023-02-03T12:52:37.492Z,3.15
2023-02-03T12:53:48.957Z,2.53
2023-02-03T12:55:35.633Z,2.50
2023-02-03T12:56:44.272Z,2.55
2023-02-03T12:58:11.893Z,3.20
2023-02-03T12:59:22.983Z,3.17
2023-02-03T13:00:39.498Z,2.90
2023-02-03T13:01:54.155Z,3.28
2023-02-03T13:03:12.435Z,3.35
2023-02-03T13:04:56.001Z,3.65
2023-02-03T13:06:23.802Z,3.38
2023-02-03T13:08:44.061Z,2.45
2023-02-03T13:10:27.308Z,2.65
2023-02-03T13:12:02.427Z,2.97
2023-02-03T13:13:09.349Z,2.90
2023-02-03T13:14:31.375Z,3.78
2023-02-03T13:15:52.592Z,3.15
2023-02-03T13:17:21.457Z,3.30
2023-02-03T13:18:40.255Z,4.28
2023-02-03T13:19:52.340Z,3.63
2023-02-03T13:20:55.983Z,3.13
2023-02-03T13:21:59.060Z,4.00
2023-02-03T13:23:12.616Z,3.47
2023-02-03T13:24:16.501Z,3.80
2023-02-03T13:25:51.517Z,3.60
2023-02-03T13:27:09.329Z,3.95
2023-02-03T13:29:02.900Z,2.78
2023-02-03T13:30:24.895Z,3.55
2023-02-03T13:31:38.457Z,3.95
2023-02-03T13:33:05.169Z,3.53
2023-02-03T13:34:38.138Z,4.15
2023-02-03T13:35:59.102Z,4.40
2023-02-03T13:37:37.963Z,4.55
2023-02-03T13:39:27.103Z,4.38
2023-02-03T13:40:56.169Z,4.20
2023-02-03T13:42:37.525Z,5.53
2023-02-03T13:43:47.820Z,5.32
2023-02-03T13:45:33.615Z,4.90
2023-02-03T13:46:37.026Z,4.72
2023-02-03T13:47:46.135Z,4.97
2023-02-03T13:48:49.973Z,4.90
2023-02-03T13:50:01.242Z,4.00
2023-02-03T13:51:16.309Z,5.10
2023-02-03T13:52:33.467Z,4.32
2023-02-03T13:53:40.448Z,4.65
2023-02-03T13:54:44.941Z,4.43
2023-02-03T13:55:59.156Z,4.53
2023-02-03T13:57:19.991Z,4.97
2023-02-03T13:58:35.389Z,4.72
2023-02-03T13:59:38.725Z,5.00
2023-02-03T14:00:44.951Z,4.35
2023-02-03T14:01:48.161Z,4.10
2023-02-03T14:02:56.567Z,4.50
2023-02-03T14:04:00.753Z,4.30
2023-02-03T14:05:05.065Z,4.25
2023-02-03T14:06:40.229Z,3.83
2023-02-03T14:07:43.494Z,4.75
2023-02-03T14:08:52.201Z,4.90
2023-02-03T14:10:13.430Z,4.22
2023-02-03T14:12:12.884Z,4.97
2023-02-03T14:13:24.945Z,3.90
2023-02-03T14:14:27.914Z,5.57
2023-02-03T14:15:33.078Z,4.50
2023-02-03T14:16:54.588Z,4.88
2023-02-03T14:18:26.307Z,4.85
2023-02-03T14:19:29.229Z,4.55
2023-02-03T14:20:42.264Z,4.80
2023-02-03T14:21:59.898Z,4.97
2023-02-03T14:23:06.103Z,4.55
2023-02-03T14:24:12.588Z,4.75
2023-02-03T14:25:20.840Z,5.10
2023-02-03T14:26:38.979Z,25.08
2023-02-03T14:27:42.197Z,4.63
2023-02-03T14:28:47.868Z,3.83
2023-02-03T14:30:23.695Z,4.82
2023-02-03T14:31:28.431Z,5.45
2023-02-03T14:33:05.171Z,4.43
2023-02-03T14:34:13.379Z,4.82
2023-02-03T14:35:35.388Z,4.82
2023-02-03T14:36:55.356Z,4.88
2023-02-03T14:38:04.362Z,4.55
2023-02-03T14:39:22.678Z,4.95
2023-02-03T14:40:48.376Z,5.18
2023-02-03T14:41:54.278Z,4.85
2023-02-03T14:43:35.176Z,5.28
2023-02-03T14:45:02.518Z,5.13
2023-02-03T14:46:52.799Z,4.97
2023-02-03T14:48:02.720Z,4.18
2023-02-03T14:49:47.513Z,5.30
2023-02-03T14:51:09.441Z,5.03
2023-02-03T14:52:36.928Z,6.53
2023-02-03T14:54:00.752Z,4.28
2023-02-03T14:55:25.515Z,5.43
2023-02-03T14:57:02.830Z,4.57
2023-02-03T14:58:23.030Z,4.38
2023-02-03T14:59:51.141Z,6.13
2023-02-03T15:00:55.309Z,4.88
2023-02-03T15:02:04.164Z,6.47
2023-02-03T15:03:09.909Z,5.20
2023-02-03T15:04:13.121Z,6.78
2023-02-03T15:05:50.319Z,5.15
2023-02-03T15:06:54.393Z,5.93
2023-02-03T15:07:58.947Z,5.60
2023-02-03T15:09:12.880Z,6.50
2023-02-03T15:10:45.031Z,6.70
2023-02-03T15:11:48.208Z,5.93
2023-02-03T15:12:54.073Z,6.22
2023-02-03T15:14:15.825Z,6.78
2023-02-03T15:15:25.804Z,7.07
2023-02-03T15:16:29.165Z,6.75
2023-02-03T15:17:32.561Z,7.03
2023-02-03T15:18:37.849Z,7.30
2023-02-03T15:19:42.876Z,8.32
2023-02-03T15:20:53.289Z,6.90
2023-02-03T15:21:56.543Z,5.63
2023-02-03T15:23:00.038Z,6.13
2023-02-03T15:24:03.413Z,6.03
2023-02-03T15:25:18.572Z,6.70
2023-02-03T15:26:24.508Z,7.20
2023-02-03T15:27:31.650Z,5.60
2023-02-03T15:28:35.004Z,6.35
2023-02-03T15:29:38.517Z,6.13
2023-02-03T15:30:42.443Z,5.25
2023-02-03T15:31:51.879Z,5.32
2023-02-03T15:33:08.394Z,6.38
2023-02-03T15:34:30.043Z,5.88
2023-02-03T15:35:37.176Z,5.90
2023-02-03T15:36:50.429Z,5.15
2023-02-03T15:38:06.411Z,5.75
2023-02-03T15:39:46.361Z,5.32
2023-02-03T15:40:55.101Z,5.65
2023-02-03T15:42:00.294Z,5.80